MDLR/LRM METAR and TAF weather

Enter ICAO airport designator
Station Type Date Time Source
MDLR METAR 2020/11/28 20:00 UTC NOAA

MDLR 282000Z 07006KT 9999 FEW017CB SCT017 SCT070 27/23 Q1013 CB/SE/S


Station Type Date Time Source
MDLR Decoded METAR 2020/11/28 20:00 UTC NOAA

La Romana International Airport, Dominican Republic (MDLR) 18-25N 068-57W
Nov 28, 2020 - 03:00 PM EST / 2020.11.28 2000 UTC
Wind: from the ENE (070 degrees) at 7 MPH (6 KT):0
Visibility: greater than 7 mile(s):0
Sky conditions: partly cloudy
Weather: Cumulonimbus clouds observed
Temperature: 80 F (27 C)
Dew Point: 73 F (23 C)
Relative Humidity: 78%
Pressure (altimeter): 29.91 in. Hg (1013 hPa)
ob: MDLR 282000Z 07006KT 9999 FEW017CB SCT017 SCT070 27/23 Q1013 CB/SE/S
cycle: 20

Station Type Date Time Source
MDLR TAF 2020/11/28 18:17 UTC NOAA

TAF MDLR 281600Z 2818/2918 06010KT 9999 SCT020 PROB30 2818/2900 7000 SHRA BKN016
BECMG 2900/2902 00000KT

Example: see airport list